createdAt,value
2022-08-17T00:00:43.158Z,92.40
2022-08-17T00:03:34.072Z,92.50
2022-08-17T00:06:23.957Z,92.10
2022-08-17T00:09:10.109Z,92.20
2022-08-17T00:12:51.471Z,92.10
2022-08-17T00:15:13.383Z,92.60
2022-08-17T00:17:58.693Z,92.90
2022-08-17T00:20:44.433Z,92.60
2022-08-17T00:23:30.185Z,92.80
2022-08-17T00:26:16.175Z,93.10
2022-08-17T00:29:22.253Z,93.20
2022-08-17T00:33:11.902Z,93.10
2022-08-17T00:35:17.637Z,93.20
2022-08-17T00:38:05.035Z,93.50
2022-08-17T00:41:20.113Z,93.20
2022-08-17T00:44:06.721Z,92.90
2022-08-17T00:46:52.430Z,93.00
2022-08-17T00:49:37.919Z,93.00
2022-08-17T00:52:29.133Z,92.70
2022-08-17T00:55:14.851Z,93.30
2022-08-17T00:58:03.757Z,93.80
2022-08-17T01:00:50.944Z,94.00
2022-08-17T01:03:37.416Z,94.10
2022-08-17T01:06:24.286Z,93.80
2022-08-17T01:09:10.423Z,94.40
2022-08-17T01:11:55.980Z,94.20
2022-08-17T01:14:41.979Z,94.30
2022-08-17T01:17:28.602Z,94.90
2022-08-17T01:20:14.360Z,95.40
2022-08-17T01:23:01.231Z,95.90
2022-08-17T01:25:58.435Z,96.40
2022-08-17T01:28:53.643Z,96.50
2022-08-17T01:31:52.598Z,96.40
2022-08-17T01:34:42.702Z,96.00
2022-08-17T01:37:38.337Z,96.10
2022-08-17T01:40:43.205Z,96.10
2022-08-17T01:43:34.618Z,95.60
2022-08-17T01:46:27.214Z,96.10
2022-08-17T01:49:13.060Z,96.70
2022-08-17T01:52:05.586Z,96.60
2022-08-17T01:54:52.499Z,96.80
2022-08-17T01:57:38.063Z,96.80
2022-08-17T02:00:23.866Z,97.20
2022-08-17T02:03:10.570Z,97.30
2022-08-17T02:05:57.079Z,97.30
2022-08-17T02:09:01.851Z,97.50
2022-08-17T02:11:48.535Z,97.80
2022-08-17T02:14:35.926Z,97.90
2022-08-17T02:17:21.901Z,97.80
2022-08-17T02:20:09.516Z,97.50
2022-08-17T02:22:55.908Z,97.50
2022-08-17T02:25:45.818Z,97.10
2022-08-17T02:28:33.565Z,97.10
2022-08-17T02:31:19.429Z,97.20
2022-08-17T02:34:06.261Z,96.40
2022-08-17T02:36:53.434Z,96.40
2022-08-17T02:39:39.009Z,97.60
2022-08-17T02:42:31.482Z,98.30
2022-08-17T02:45:24.216Z,98.60
2022-08-17T02:48:10.606Z,99.60
2022-08-17T02:50:56.292Z,99.90
2022-08-17T02:53:42.008Z,99.90
2022-08-17T02:56:27.561Z,99.90
2022-08-17T02:59:13.016Z,99.90
2022-08-17T03:01:58.757Z,99.90
2022-08-17T03:04:44.126Z,99.90
2022-08-17T03:07:31.019Z,99.90
2022-08-17T03:10:18.561Z,99.90
2022-08-17T03:13:04.606Z,99.90
2022-08-17T03:15:50.683Z,99.90
2022-08-17T03:18:36.801Z,99.90
2022-08-17T03:21:22.609Z,99.90
2022-08-17T03:24:09.254Z,99.90
2022-08-17T03:26:54.681Z,99.90
2022-08-17T03:29:41.495Z,99.90
2022-08-17T03:32:27.055Z,99.90
2022-08-17T03:35:15.646Z,99.90
2022-08-17T03:38:04.215Z,99.90
2022-08-17T03:40:56.290Z,99.90
2022-08-17T03:43:44.955Z,99.90
2022-08-17T03:46:48.844Z,99.90
2022-08-17T03:49:52.871Z,99.90
2022-08-17T03:52:57.049Z,99.90
2022-08-17T03:56:01.284Z,99.90
2022-08-17T03:58:46.741Z,99.90
2022-08-17T04:01:32.517Z,99.90
2022-08-17T04:04:18.773Z,99.90
2022-08-17T04:07:12.013Z,99.90
2022-08-17T04:09:58.371Z,99.90
2022-08-17T04:12:51.448Z,99.90
2022-08-17T04:15:37.382Z,99.90
2022-08-17T04:18:22.925Z,99.90
2022-08-17T04:21:11.689Z,99.90
2022-08-17T04:23:58.238Z,99.90
2022-08-17T04:26:52.037Z,99.90
2022-08-17T04:29:54.837Z,99.90
2022-08-17T04:33:07.294Z,99.90
2022-08-17T04:35:56.189Z,99.90
2022-08-17T04:38:44.370Z,99.90
2022-08-17T04:41:48.319Z,99.90
2022-08-17T04:44:37.846Z,99.90
2022-08-17T04:47:24.253Z,99.90
2022-08-17T04:50:09.972Z,99.90
2022-08-17T04:52:56.044Z,99.90
2022-08-17T04:55:41.897Z,99.90
2022-08-17T04:58:27.415Z,99.90
2022-08-17T05:01:13.773Z,99.90
2022-08-17T05:04:33.159Z,99.90
2022-08-17T05:07:08.044Z,99.90
2022-08-17T05:09:53.442Z,99.90
2022-08-17T05:12:38.937Z,99.90
2022-08-17T05:15:24.447Z,99.90
2022-08-17T05:18:10.297Z,99.90
2022-08-17T05:20:57.000Z,99.90
2022-08-17T05:23:43.606Z,99.90
2022-08-17T05:26:31.702Z,99.90
2022-08-17T05:29:22.058Z,99.90
2022-08-17T05:32:37.868Z,99.90
2022-08-17T05:35:28.192Z,99.90
2022-08-17T05:38:15.386Z,99.90
2022-08-17T05:41:04.421Z,99.90
2022-08-17T05:43:55.697Z,99.90
2022-08-17T05:46:45.664Z,99.90
2022-08-17T05:49:31.594Z,99.90
2022-08-17T05:52:38.761Z,99.90
2022-08-17T05:55:33.249Z,99.90
2022-08-17T05:58:27.934Z,99.90
2022-08-17T06:01:48.131Z,99.90
2022-08-17T06:05:18.121Z,99.90
2022-08-17T06:08:22.017Z,99.90
2022-08-17T06:11:22.871Z,99.90
2022-08-17T06:14:31.505Z,99.90
2022-08-17T06:17:22.365Z,99.90
2022-08-17T06:20:14.352Z,99.90
2022-08-17T06:23:08.429Z,99.90
2022-08-17T06:26:03.787Z,99.90
2022-08-17T06:29:02.870Z,99.90
2022-08-17T06:31:48.907Z,99.90
2022-08-17T06:34:35.089Z,99.90
2022-08-17T06:37:36.578Z,99.90
2022-08-17T06:40:48.542Z,99.90
2022-08-17T06:44:00.737Z,99.90
2022-08-17T06:46:54.226Z,99.90
2022-08-17T06:49:55.446Z,99.90
2022-08-17T06:52:59.659Z,99.90
2022-08-17T06:55:53.376Z,99.90
2022-08-17T06:58:41.667Z,99.90
2022-08-17T07:01:35.809Z,99.90
2022-08-17T07:04:26.343Z,99.90
2022-08-17T07:07:31.534Z,99.90
2022-08-17T07:10:19.529Z,99.90
2022-08-17T07:13:29.437Z,99.90
2022-08-17T07:16:25.890Z,99.90
2022-08-17T07:19:11.713Z,99.90
2022-08-17T07:22:15.462Z,99.90
2022-08-17T07:25:06.740Z,99.90
2022-08-17T07:27:59.743Z,99.90
2022-08-17T07:30:51.897Z,99.90
2022-08-17T07:33:38.237Z,99.90
2022-08-17T07:36:29.985Z,99.90
2022-08-17T07:39:27.690Z,99.90
2022-08-17T07:42:13.308Z,99.90
2022-08-17T07:45:19.094Z,99.90
2022-08-17T07:48:19.696Z,99.90
2022-08-17T07:51:25.189Z,99.90
2022-08-17T07:54:18.518Z,99.90
2022-08-17T07:57:29.474Z,99.90
2022-08-17T08:00:26.714Z,99.90
2022-08-17T08:03:26.209Z,99.90
2022-08-17T08:06:26.403Z,99.90
2022-08-17T08:09:29.311Z,99.90
2022-08-17T08:12:21.331Z,99.90
2022-08-17T08:15:18.708Z,99.90
2022-08-17T08:18:53.455Z,99.90
2022-08-17T08:21:47.660Z,99.90
2022-08-17T08:24:59.134Z,99.90
2022-08-17T08:28:06.378Z,99.90
2022-08-17T08:31:16.895Z,99.90
2022-08-17T08:35:00.799Z,99.90
2022-08-17T08:38:07.620Z,99.90
2022-08-17T08:41:18.684Z,99.90
2022-08-17T08:45:01.340Z,99.90
2022-08-17T08:47:49.165Z,99.90
2022-08-17T08:51:13.543Z,99.90
2022-08-17T08:54:26.811Z,99.90
2022-08-17T08:57:24.410Z,99.90
2022-08-17T09:00:15.681Z,99.90
2022-08-17T09:03:13.230Z,99.90
2022-08-17T09:06:06.139Z,99.70
2022-08-17T09:09:41.890Z,99.90
2022-08-17T09:12:41.796Z,98.30
2022-08-17T09:15:33.525Z,98.50
2022-08-17T09:18:59.842Z,98.10
2022-08-17T09:21:48.000Z,97.50
2022-08-17T09:24:43.953Z,97.50
2022-08-17T09:27:56.563Z,97.30
2022-08-17T09:30:50.638Z,96.40
2022-08-17T09:33:43.231Z,96.70
2022-08-17T09:36:34.493Z,95.80
2022-08-17T09:39:48.199Z,95.90
2022-08-17T09:42:49.899Z,95.20
2022-08-17T09:45:51.139Z,95.50
2022-08-17T09:48:50.286Z,94.40
2022-08-17T09:51:42.257Z,94.50
2022-08-17T09:54:39.039Z,93.80
2022-08-17T09:57:52.349Z,93.20
2022-08-17T10:00:45.995Z,93.70
2022-08-17T10:04:09.053Z,93.00
2022-08-17T10:07:19.682Z,92.80
2022-08-17T10:10:25.687Z,91.70
2022-08-17T10:13:14.687Z,92.30
2022-08-17T10:16:31.153Z,92.30
2022-08-17T10:19:23.287Z,92.40
2022-08-17T10:22:38.712Z,91.80
2022-08-17T10:26:00.286Z,91.80
2022-08-17T10:28:55.925Z,91.50
2022-08-17T10:31:50.347Z,91.60
2022-08-17T10:34:50.977Z,92.60
2022-08-17T10:38:03.066Z,91.60
2022-08-17T10:40:53.198Z,92.10
2022-08-17T10:44:37.298Z,91.60
2022-08-17T10:47:15.425Z,90.90
2022-08-17T10:50:50.450Z,90.80
2022-08-17T10:53:35.869Z,91.20
2022-08-17T10:56:39.410Z,91.10
2022-08-17T10:59:36.957Z,90.50
2022-08-17T11:02:39.547Z,89.00
2022-08-17T11:05:28.973Z,89.60
2022-08-17T11:08:52.440Z,90.00
2022-08-17T11:12:31.572Z,90.00
2022-08-17T11:15:26.211Z,89.60
2022-08-17T11:18:37.076Z,89.50
2022-08-17T11:21:39.848Z,89.20
2022-08-17T11:24:39.898Z,88.40
2022-08-17T11:27:32.413Z,88.70
2022-08-17T11:30:43.572Z,87.50
2022-08-17T11:33:29.740Z,87.70
2022-08-17T11:36:37.561Z,87.20
2022-08-17T11:39:44.955Z,86.90
2022-08-17T11:42:58.847Z,86.90
2022-08-17T11:45:54.525Z,85.50
2022-08-17T11:49:01.520Z,83.30
2022-08-17T11:52:00.337Z,78.30
2022-08-17T11:54:48.476Z,79.00
2022-08-17T11:57:34.218Z,80.10
2022-08-17T12:00:57.813Z,78.50
2022-08-17T12:03:54.063Z,76.70
2022-08-17T12:06:52.193Z,77.10
2022-08-17T12:09:46.057Z,76.60
2022-08-17T12:12:35.959Z,75.50
2022-08-17T12:15:35.061Z,75.90
2022-08-17T12:18:32.189Z,76.00
2022-08-17T12:21:40.337Z,76.80
2022-08-17T12:24:51.589Z,75.60
2022-08-17T12:28:05.484Z,73.70
2022-08-17T12:30:52.111Z,75.30
2022-08-17T12:33:43.875Z,73.80
2022-08-17T12:36:30.530Z,70.40
2022-08-17T12:39:26.056Z,71.50
2022-08-17T12:42:22.981Z,73.20
2022-08-17T12:45:29.423Z,71.80
2022-08-17T12:48:24.031Z,71.60
2022-08-17T12:51:13.058Z,71.30
2022-08-17T12:53:58.869Z,70.40
2022-08-17T12:56:46.224Z,71.90
2022-08-17T12:59:33.517Z,70.40
2022-08-17T13:02:46.850Z,71.70
2022-08-17T13:05:36.190Z,70.20
2022-08-17T13:08:29.365Z,70.00
2022-08-17T13:11:16.170Z,70.00
2022-08-17T13:14:10.080Z,70.50
2022-08-17T13:17:00.882Z,71.00
2022-08-17T13:19:51.430Z,71.60
2022-08-17T13:22:37.343Z,71.60
2022-08-17T13:25:24.061Z,71.20
2022-08-17T13:28:18.624Z,71.60
2022-08-17T13:31:28.330Z,71.60
2022-08-17T13:34:26.887Z,72.20
2022-08-17T13:37:29.489Z,71.40
2022-08-17T13:40:14.896Z,71.00
2022-08-17T13:43:03.319Z,71.80
2022-08-17T13:45:52.073Z,71.50
2022-08-17T13:48:37.997Z,70.50
2022-08-17T13:51:44.916Z,71.20
2022-08-17T13:54:34.403Z,71.60
2022-08-17T13:57:25.776Z,71.90
2022-08-17T14:00:33.184Z,72.20
2022-08-17T14:03:20.530Z,72.30
2022-08-17T14:06:06.377Z,71.70
2022-08-17T14:08:55.733Z,72.30
2022-08-17T14:11:43.093Z,72.50
2022-08-17T14:14:29.372Z,71.80
2022-08-17T14:17:15.249Z,72.40
2022-08-17T14:20:01.133Z,72.50
2022-08-17T14:22:50.792Z,72.90
2022-08-17T14:25:36.338Z,71.50
2022-08-17T14:28:22.138Z,71.80
2022-08-17T14:31:08.447Z,72.10
2022-08-17T14:33:54.194Z,72.00
2022-08-17T14:36:48.174Z,72.00
2022-08-17T14:39:34.291Z,72.40
2022-08-17T14:42:20.542Z,72.40
2022-08-17T14:45:31.455Z,72.40
2022-08-17T14:48:13.942Z,71.50
2022-08-17T14:50:59.423Z,71.30
2022-08-17T14:53:45.871Z,71.00
2022-08-17T14:56:31.841Z,71.10
2022-08-17T14:59:23.913Z,68.90
2022-08-17T15:02:10.816Z,70.00
2022-08-17T15:05:02.192Z,69.60
2022-08-17T15:07:47.981Z,70.50
2022-08-17T15:10:34.212Z,71.00
2022-08-17T15:13:25.787Z,70.00
2022-08-17T15:16:13.752Z,70.40
2022-08-17T15:18:59.894Z,70.50
2022-08-17T15:21:46.994Z,70.00
2022-08-17T15:24:33.652Z,69.50
2022-08-17T15:27:24.254Z,69.80
2022-08-17T15:30:18.591Z,68.40
2022-08-17T15:33:04.395Z,68.70
2022-08-17T15:35:52.093Z,66.90
2022-08-17T15:38:40.619Z,65.40
2022-08-17T15:41:30.099Z,65.00
2022-08-17T15:44:15.809Z,63.80
2022-08-17T15:47:01.977Z,64.40
2022-08-17T15:49:47.898Z,64.40
2022-08-17T15:52:40.381Z,64.00
2022-08-17T15:55:28.019Z,65.60
2022-08-17T15:58:14.048Z,63.20
2022-08-17T16:01:18.195Z,65.10
2022-08-17T16:04:06.944Z,64.00
2022-08-17T16:06:53.057Z,63.20
2022-08-17T16:09:38.708Z,62.40
2022-08-17T16:12:24.537Z,61.20
2022-08-17T16:15:11.502Z,60.00
2022-08-17T16:17:57.726Z,59.60
2022-08-17T16:20:43.975Z,60.00
2022-08-17T16:23:29.394Z,60.60
2022-08-17T16:26:16.081Z,61.10
2022-08-17T16:29:04.792Z,60.90
2022-08-17T16:31:51.284Z,62.00
2022-08-17T16:34:37.140Z,62.00
2022-08-17T16:37:22.931Z,61.70
2022-08-17T16:40:11.640Z,62.50
2022-08-17T16:42:57.756Z,62.20
2022-08-17T16:45:44.871Z,62.80
2022-08-17T16:48:33.132Z,62.60
2022-08-17T16:51:19.049Z,62.80
2022-08-17T16:54:06.297Z,64.00
2022-08-17T16:56:53.694Z,63.20
2022-08-17T16:59:43.733Z,63.80
2022-08-17T17:02:37.096Z,63.50
2022-08-17T17:05:48.462Z,64.10
2022-08-17T17:08:48.485Z,64.20
2022-08-17T17:11:48.037Z,65.00
2022-08-17T17:14:43.231Z,65.10
2022-08-17T17:17:31.193Z,65.60
2022-08-17T17:20:22.321Z,65.90
2022-08-17T17:23:23.664Z,65.80
2022-08-17T17:26:25.288Z,65.90
2022-08-17T17:29:47.671Z,66.10
2022-08-17T17:33:07.794Z,65.90
2022-08-17T17:35:59.167Z,65.60
2022-08-17T17:38:49.833Z,66.00
2022-08-17T17:41:51.945Z,66.50
2022-08-17T17:45:09.578Z,66.50
2022-08-17T17:47:55.017Z,66.90
2022-08-17T17:51:07.150Z,67.90
2022-08-17T17:54:07.162Z,67.50
2022-08-17T17:57:26.550Z,68.80
2022-08-17T18:00:20.746Z,69.10
2022-08-17T18:03:29.394Z,71.00
2022-08-17T18:06:41.344Z,69.90
2022-08-17T18:09:39.514Z,72.70
2022-08-17T18:12:49.769Z,71.80
2022-08-17T18:16:01.890Z,71.80
2022-08-17T18:18:50.037Z,70.40
2022-08-17T18:21:38.453Z,70.50
2022-08-17T18:24:36.025Z,71.10
2022-08-17T18:27:32.311Z,70.30
2022-08-17T18:30:17.987Z,70.00
2022-08-17T18:33:26.333Z,73.10
2022-08-17T18:36:13.515Z,74.80
2022-08-17T18:39:26.637Z,77.90
2022-08-17T18:42:27.471Z,80.30
2022-08-17T18:45:13.819Z,82.40
2022-08-17T18:47:59.691Z,82.80
2022-08-17T18:50:45.473Z,85.30
2022-08-17T18:53:37.030Z,86.60
2022-08-17T18:56:27.125Z,87.30
2022-08-17T18:59:23.107Z,87.60
2022-08-17T19:02:20.700Z,87.60
2022-08-17T19:05:25.397Z,89.20
2022-08-17T19:08:21.490Z,90.20
2022-08-17T19:11:19.224Z,90.50
2022-08-17T19:14:12.113Z,91.10
2022-08-17T19:17:04.838Z,91.90
2022-08-17T19:20:05.081Z,91.50
2022-08-17T19:23:25.253Z,91.70
2022-08-17T19:26:54.671Z,92.80
2022-08-17T19:29:41.158Z,92.80
2022-08-17T19:32:31.368Z,92.40
2022-08-17T19:35:20.208Z,93.60
2022-08-17T19:38:14.555Z,93.40
2022-08-17T19:41:09.237Z,94.00
2022-08-17T19:44:12.073Z,94.50
2022-08-17T19:47:53.836Z,94.80
2022-08-17T19:50:54.841Z,94.90
2022-08-17T19:54:11.225Z,94.80
2022-08-17T19:57:36.666Z,95.50
2022-08-17T20:00:25.589Z,95.80
2022-08-17T20:03:17.097Z,97.00
2022-08-17T20:06:13.131Z,97.60
2022-08-17T20:09:02.419Z,98.20
2022-08-17T20:11:56.381Z,98.40
2022-08-17T20:14:53.663Z,99.50
2022-08-17T20:17:45.922Z,99.90
2022-08-17T20:21:01.326Z,99.90
2022-08-17T20:24:34.825Z,99.90
2022-08-17T20:27:31.514Z,99.90
2022-08-17T20:30:24.404Z,99.90
2022-08-17T20:33:28.748Z,99.90
2022-08-17T20:36:19.278Z,99.90
2022-08-17T20:39:04.911Z,99.90
2022-08-17T20:42:27.901Z,99.90
2022-08-17T20:45:23.419Z,99.90
2022-08-17T20:48:37.027Z,99.90
2022-08-17T20:51:28.263Z,99.90
2022-08-17T20:54:16.875Z,99.90
2022-08-17T20:57:03.215Z,99.90
2022-08-17T21:00:03.423Z,99.90
2022-08-17T21:02:50.917Z,99.90
2022-08-17T21:05:59.793Z,99.90
2022-08-17T21:08:53.898Z,99.90
2022-08-17T21:11:57.303Z,99.90
2022-08-17T21:14:58.087Z,99.90
2022-08-17T21:17:50.295Z,99.90
2022-08-17T21:20:59.678Z,99.90
2022-08-17T21:24:19.374Z,99.90
2022-08-17T21:27:38.841Z,99.90
2022-08-17T21:30:47.563Z,99.90
2022-08-17T21:33:38.443Z,99.90
2022-08-17T21:36:25.920Z,99.90
2022-08-17T21:39:21.430Z,99.90
2022-08-17T21:42:12.759Z,99.90
2022-08-17T21:45:17.675Z,99.90
2022-08-17T21:48:24.271Z,99.90
2022-08-17T21:51:17.607Z,99.90
2022-08-17T21:54:35.501Z,99.90
2022-08-17T21:57:27.670Z,99.90
2022-08-17T22:00:24.071Z,99.90
2022-08-17T22:03:23.518Z,99.90
2022-08-17T22:06:24.663Z,99.90
2022-08-17T22:09:10.433Z,99.90
2022-08-17T22:11:58.938Z,99.90
2022-08-17T22:14:56.474Z,99.90
2022-08-17T22:17:46.554Z,99.90
2022-08-17T22:20:32.644Z,99.90
2022-08-17T22:24:01.114Z,99.90
2022-08-17T22:27:05.895Z,99.90
2022-08-17T22:30:00.649Z,99.90
2022-08-17T22:32:49.350Z,99.90
2022-08-17T22:35:42.061Z,99.90
2022-08-17T22:38:30.015Z,99.90
2022-08-17T22:41:42.943Z,99.90
2022-08-17T22:44:44.206Z,99.90
2022-08-17T22:47:39.441Z,99.90
2022-08-17T22:50:28.303Z,99.90
2022-08-17T22:53:36.574Z,99.90
2022-08-17T22:56:43.456Z,99.90
2022-08-17T22:59:39.268Z,99.90
2022-08-17T23:02:28.030Z,99.90
2022-08-17T23:05:13.791Z,99.90
2022-08-17T23:07:59.169Z,99.90
2022-08-17T23:10:46.596Z,99.90
2022-08-17T23:13:33.436Z,99.90
2022-08-17T23:16:21.113Z,99.90
2022-08-17T23:19:08.458Z,99.90
2022-08-17T23:21:56.314Z,99.90
2022-08-17T23:24:48.870Z,99.90
2022-08-17T23:27:34.538Z,99.90
2022-08-17T23:30:20.131Z,99.90
2022-08-17T23:33:08.390Z,99.90
2022-08-17T23:35:54.129Z,99.90
2022-08-17T23:38:40.229Z,99.90
2022-08-17T23:41:31.625Z,99.90
2022-08-17T23:44:18.227Z,99.90
2022-08-17T23:47:05.705Z,99.90
2022-08-17T23:49:54.124Z,99.90
2022-08-17T23:52:43.451Z,99.90
2022-08-17T23:55:34.478Z,99.90
2022-08-17T23:58:20.059Z,99.90
